Archival Weather

Snohomish County (Paine Fld)

Everett, Washington (KPAE)

Report from: Sunday, November 19, 2023 11:53 AM PST
Current time: Monday, June 17, 2024 12:09 AM PDT

Current weather – Weather history – Daily summaries
Weather forecast

Temperature9.4°C (48.9°F)
Wind chill8.9°C (48.1°F)
Dew point3.9°C (39.0°F)
Winds 3 kts (1.5 m/s, 3.5 mph) Vrb
Winds variableWinds variable
Visibility10 mi. (16.1 km)
Clouds Scattered clouds 700 ft. (213 m)
Ceiling: Broken clouds 2,800 ft. (853 m)
Overcast 4,000 ft. (1,219 m)
Altimeter30.28 in.Hg (1025 mB)
Relative humidity69 %
Density altitude-968 ft. (-295 m)
Sea-level pressure102.6 kPa (1026 mB, 30.29 in.Hg)
Remarks Automated weather observing station with precipitation discriminator
Flight conditions Marginal Visual Meteorological Conditions
Raw dataKPAE 191953Z VRB03KT 10SM SCT007 BKN028 OVC040 09/04 A3028 RMK AO2 SLP256 T00940039
An error has occurred. This application may no longer respond until reloaded. Reload 🗙